Time;durP1;ratioP1;P1;durP2;ratioP2;P2;SDS_P1;SDS_P2;PMS_P1;PMS_P2;Temp;Humidity;BMP_temperature;BMP_pressure;BME280_temperature;BME280_humidity;BME280_pressure;Samples;Min_cycle;Max_cycle;Signal;HPM_P1;HPM_P2
2023/03/07 00:03:59;;;;;;;17.90;7.60;;;;;3.60;95062.00;;;;8425075;28;20230;-81
2023/03/07 00:08:06;;;;;;;22.23;9.50;;;;;3.60;95052.00;;;;8427481;28;20193;-80
2023/03/07 00:12:10;;;;;;;20.73;9.17;;;;;3.60;95048.00;;;;8429328;28;20189;-81
2023/03/07 00:16:16;;;;;;;26.17;10.67;;;;;3.60;95059.00;;;;8425713;28;20224;-81
2023/03/07 00:20:22;;;;;;;22.10;10.63;;;;;3.60;95061.00;;;;8422266;28;20213;-81
2023/03/07 00:24:25;;;;;;;21.10;10.03;;;;;3.70;95059.00;;;;8433299;28;20675;-83
2023/03/07 00:28:29;;;;;;;19.10;8.50;;;;;3.70;95061.00;;;;8433760;28;20206;-81
2023/03/07 00:32:36;;;;;;;24.83;10.40;;;;;3.70;95054.00;;;;8417769;28;20198;-81
2023/03/07 00:36:39;;;;;;;16.10;8.13;;;;;3.70;95049.00;;;;8418602;28;20205;-82
2023/03/07 00:40:46;;;;;;;20.50;10.00;;;;;3.70;95044.00;;;;8412614;28;20198;-82
2023/03/07 00:44:53;;;;;;;22.10;9.93;;;;;3.70;95047.00;;;;8411128;28;20224;-85
2023/03/07 00:48:59;;;;;;;23.23;9.70;;;;;3.70;95041.00;;;;8408494;28;20797;-82
2023/03/07 00:53:02;;;;;;;22.20;9.80;;;;;3.60;95033.00;;;;8425649;28;20194;-82
2023/03/07 00:57:05;;;;;;;21.53;9.63;;;;;3.70;95032.00;;;;8413069;28;20198;-84
2023/03/07 01:01:09;;;;;;;21.47;9.60;;;;;3.70;95018.00;;;;8415038;28;20270;-83
2023/03/07 01:05:13;;;;;;;22.37;10.30;;;;;3.70;95013.00;;;;8417038;28;21039;-81
2023/03/07 01:09:16;;;;;;;21.90;10.27;;;;;3.60;95017.00;;;;8425473;28;20228;-83
2023/03/07 01:13:22;;;;;;;21.07;10.10;;;;;3.60;95007.00;;;;8422145;28;20281;-83
2023/03/07 01:17:29;;;;;;;23.47;10.90;;;;;3.60;94995.00;;;;8426338;28;20207;-83
2023/03/07 01:21:38;;;;;;;25.03;11.57;;;;;3.70;94988.00;;;;8410639;28;20233;-83
2023/03/07 01:25:44;;;;;;;22.07;10.17;;;;;3.60;94985.00;;;;8414893;28;20241;-80
2023/03/07 01:29:48;;;;;;;21.10;10.53;;;;;3.60;94985.00;;;;8425217;28;20199;-81
2023/03/07 01:33:54;;;;;;;21.23;9.23;;;;;3.60;94981.00;;;;8425108;28;20259;-80
2023/03/07 01:38:02;;;;;;;23.27;10.47;;;;;3.60;94976.00;;;;8422912;28;20285;-82
2023/03/07 01:42:05;;;;;;;23.30;9.67;;;;;3.60;94966.00;;;;8421702;28;20202;-81
2023/03/07 01:46:42;;;;;;;24.47;9.90;;;;;3.60;94963.00;;;;8414318;28;20238;-82
2023/03/07 01:50:48;;;;;;;22.73;9.40;;;;;3.60;94961.00;;;;8405764;28;20626;-81
2023/03/07 01:54:57;;;;;;;20.80;8.47;;;;;3.60;94955.00;;;;8403898;28;20220;-81
2023/03/07 01:59:05;;;;;;;20.03;9.10;;;;;3.60;94952.00;;;;8408748;28;20261;-82
2023/03/07 02:03:20;;;;;;;15.97;7.53;;;;;3.60;94947.00;;;;8416015;28;20251;-83
2023/03/07 02:07:27;;;;;;;24.10;9.80;;;;;3.60;94935.00;;;;8417633;28;20226;-82
2023/03/07 02:11:32;;;;;;;23.70;9.50;;;;;3.60;94928.00;;;;8424847;28;20329;-82
2023/03/07 02:15:35;;;;;;;20.33;9.90;;;;;3.60;94933.00;;;;8402791;28;20208;-83
2023/03/07 02:19:51;;;;;;;23.57;10.13;;;;;3.50;94912.00;;;;8410789;28;20209;-81
2023/03/07 02:24:01;;;;;;;19.97;9.47;;;;;3.50;94907.00;;;;8417524;28;20284;-81
2023/03/07 02:28:09;;;;;;;26.73;9.37;;;;;3.50;94907.00;;;;8428418;28;20200;-81
2023/03/07 02:32:14;;;;;;;24.13;9.67;;;;;3.40;94898.00;;;;8402240;28;20208;-83
2023/03/07 02:36:25;;;;;;;21.90;9.40;;;;;3.40;94901.00;;;;8409909;28;20743;-82
2023/03/07 02:40:30;;;;;;;21.50;9.77;;;;;3.30;94899.00;;;;8404334;28;20225;-82
2023/03/07 02:44:34;;;;;;;20.63;9.00;;;;;3.30;94911.00;;;;8404378;28;20221;-82
2023/03/07 02:48:42;;;;;;;21.10;9.03;;;;;3.30;94912.00;;;;8392960;28;20213;-82
2023/03/07 02:52:50;;;;;;;21.20;9.57;;;;;3.20;94903.00;;;;8414643;28;20204;-82
2023/03/07 02:56:54;;;;;;;21.83;9.77;;;;;3.20;94914.00;;;;8410060;28;20189;-82
2023/03/07 03:01:02;;;;;;;20.10;9.00;;;;;3.20;94912.00;;;;8433210;22;20229;-83
2023/03/07 03:05:07;;;;;;;21.70;10.20;;;;;3.20;94913.00;;;;8317746;28;20685;-82
2023/03/07 03:09:10;;;;;;;16.87;8.80;;;;;3.20;94916.00;;;;8351569;28;20210;-81
2023/03/07 03:13:14;;;;;;;24.20;9.23;;;;;3.10;94911.00;;;;8364281;28;20221;-82
2023/03/07 03:17:18;;;;;;;26.30;10.27;;;;;3.10;94911.00;;;;8364354;28;20222;-81
2023/03/07 03:21:21;;;;;;;21.40;9.47;;;;;3.10;94905.00;;;;8365546;28;20278;-82
2023/03/07 03:25:26;;;;;;;25.87;9.93;;;;;3.10;94894.00;;;;8364555;28;20683;-81
2023/03/07 03:29:32;;;;;;;18.70;9.27;;;;;3.10;94909.00;;;;8372088;28;20663;-81
2023/03/07 03:33:38;;;;;;;24.07;10.00;;;;;3.00;94903.00;;;;8373077;28;20208;-81
2023/03/07 03:37:41;;;;;;;21.07;10.07;;;;;3.00;94908.00;;;;8361440;28;20217;-81
2023/03/07 03:41:45;;;;;;;18.20;8.23;;;;;3.00;94899.00;;;;8354136;28;20218;-81
2023/03/07 03:45:55;;;;;;;19.17;8.83;;;;;3.00;94898.00;;;;8386001;28;20249;-81
2023/03/07 03:49:59;;;;;;;19.83;8.20;;;;;3.00;94886.00;;;;8380993;28;20197;-80
2023/03/07 03:54:02;;;;;;;21.60;10.10;;;;;3.00;94883.00;;;;8382382;28;20269;-80
2023/03/07 03:58:06;;;;;;;20.43;9.73;;;;;3.00;94883.00;;;;8378178;28;21056;-80
2023/03/07 04:02:09;;;;;;;22.17;9.90;;;;;3.00;94887.00;;;;8373622;28;20660;-80
2023/03/07 04:06:17;;;;;;;27.07;9.70;;;;;3.00;94876.00;;;;8350178;28;20248;-80
2023/03/07 04:10:21;;;;;;;23.17;10.60;;;;;3.00;94875.00;;;;8354249;28;20193;-81
2023/03/07 04:14:28;;;;;;;22.30;10.03;;;;;2.90;94864.00;;;;8351336;28;20235;-80
2023/03/07 04:18:32;;;;;;;25.67;10.00;;;;;2.90;94864.00;;;;8330823;28;20200;-80
2023/03/07 04:22:36;;;;;;;22.03;9.97;;;;;2.90;94866.00;;;;8349210;28;20852;-80
2023/03/07 04:26:40;;;;;;;19.27;9.67;;;;;2.80;94874.00;;;;8350159;28;20241;-80
2023/03/07 04:30:43;;;;;;;21.83;9.03;;;;;2.80;94869.00;;;;8342003;28;20222;-80
2023/03/07 04:34:52;;;;;;;21.67;10.07;;;;;2.90;94863.00;;;;8331251;28;20718;-79
2023/03/07 04:38:56;;;;;;;24.03;10.20;;;;;2.90;94867.00;;;;8350349;28;20268;-79
2023/03/07 04:43:04;;;;;;;18.87;8.93;;;;;2.90;94858.00;;;;8348252;28;20276;-81
2023/03/07 04:47:10;;;;;;;20.23;9.10;;;;;3.00;94866.00;;;;8340316;28;20235;-80
2023/03/07 04:51:18;;;;;;;20.37;9.17;;;;;3.10;94867.00;;;;8338734;28;20644;-81
2023/03/07 04:55:25;;;;;;;24.20;10.53;;;;;3.20;94878.00;;;;8340076;28;20201;-80
2023/03/07 04:59:31;;;;;;;18.20;9.40;;;;;3.20;94877.00;;;;8348507;28;20243;-80
2023/03/07 05:03:37;;;;;;;23.00;9.57;;;;;3.30;94868.00;;;;8338230;28;20794;-80
2023/03/07 05:07:43;;;;;;;16.20;8.07;;;;;3.40;94880.00;;;;8324711;28;20271;-80
2023/03/07 05:11:47;;;;;;;20.10;9.13;;;;;3.40;94871.00;;;;8339938;28;20344;-80
2023/03/07 05:15:52;;;;;;;21.87;9.77;;;;;3.40;94872.00;;;;8342831;28;20204;-77
2023/03/07 05:19:55;;;;;;;20.80;9.80;;;;;3.40;94866.00;;;;8345138;28;20752;-78
2023/03/07 05:23:58;;;;;;;16.60;8.30;;;;;3.40;94859.00;;;;8341121;28;20376;-76
2023/03/07 05:28:03;;;;;;;17.50;7.97;;;;;3.20;94866.00;;;;8338979;28;20274;-77
2023/03/07 05:32:12;;;;;;;19.70;8.93;;;;;3.10;94859.00;;;;8347778;28;20639;-76
2023/03/07 05:36:15;;;;;;;19.87;9.20;;;;;3.10;94863.00;;;;8342545;28;20214;-79
2023/03/07 05:40:19;;;;;;;16.97;7.30;;;;;3.00;94861.00;;;;8342453;28;20198;-76
2023/03/07 05:44:24;;;;;;;24.77;9.90;;;;;3.10;94846.00;;;;8345840;28;20193;-77
2023/03/07 05:48:27;;;;;;;22.37;9.73;;;;;3.10;94856.00;;;;8342016;28;20225;-77
2023/03/07 05:52:30;;;;;;;21.60;8.87;;;;;3.10;94845.00;;;;8331364;28;20199;-77
2023/03/07 05:56:34;;;;;;;23.10;9.43;;;;;3.10;94845.00;;;;8340929;28;20297;-77
2023/03/07 06:00:44;;;;;;;21.37;8.63;;;;;3.10;94842.00;;;;8334754;28;20263;-77
2023/03/07 06:04:48;;;;;;;17.23;8.43;;;;;3.10;94846.00;;;;8346448;28;20242;-80
2023/03/07 06:08:52;;;;;;;21.10;8.60;;;;;3.20;94842.00;;;;8339272;28;20293;-77
2023/03/07 06:12:58;;;;;;;21.53;9.50;;;;;3.20;94851.00;;;;8335538;28;20611;-77
2023/03/07 06:17:03;;;;;;;24.30;10.23;;;;;3.20;94853.00;;;;8343396;28;20201;-77
2023/03/07 06:21:10;;;;;;;19.10;8.97;;;;;3.20;94848.00;;;;8342290;28;20241;-76
2023/03/07 06:25:20;;;;;;;17.37;8.63;;;;;3.30;94847.00;;;;8346556;28;20203;-74
2023/03/07 06:29:25;;;;;;;25.17;10.57;;;;;3.30;94839.00;;;;8342848;28;20225;-74
2023/03/07 06:33:33;;;;;;;22.40;9.20;;;;;3.30;94843.00;;;;8340690;28;20676;-75
2023/03/07 06:37:40;;;;;;;21.73;8.87;;;;;3.30;94850.00;;;;8348943;28;20658;-75
2023/03/07 06:41:43;;;;;;;24.27;10.00;;;;;3.40;94853.00;;;;8342745;28;20214;-76
2023/03/07 06:45:48;;;;;;;26.27;11.63;;;;;3.50;94851.00;;;;8342969;28;20233;-75
2023/03/07 06:49:54;;;;;;;26.83;10.20;;;;;3.60;94863.00;;;;8338292;28;20242;-74
2023/03/07 06:53:57;;;;;;;22.77;9.70;;;;;3.60;94869.00;;;;8341248;28;20677;-74
2023/03/07 06:58:00;;;;;;;25.20;10.63;;;;;3.70;94873.00;;;;8337198;28;20550;-74
2023/03/07 07:02:09;;;;;;;21.23;9.73;;;;;3.80;94861.00;;;;8341324;28;20295;-74
2023/03/07 07:06:14;;;;;;;24.33;10.87;;;;;3.90;94873.00;;;;8339861;28;21574;-76
2023/03/07 07:10:19;;;;;;;23.97;10.77;;;;;4.00;94875.00;;;;8342183;28;20203;-75
2023/03/07 07:14:24;;;;;;;21.33;10.47;;;;;4.10;94865.00;;;;8337853;28;20556;-75
2023/03/07 07:18:28;;;;;;;16.37;7.07;;;;;4.20;94853.00;;;;8342458;28;20629;-75
2023/03/07 07:22:39;;;;;;;23.60;10.53;;;;;4.30;94870.00;;;;8342086;28;20201;-75
2023/03/07 07:26:44;;;;;;;18.20;9.17;;;;;4.40;94868.00;;;;8338271;28;20439;-76
2023/03/07 07:30:47;;;;;;;20.07;9.67;;;;;4.50;94869.00;;;;8338356;28;20302;-75
2023/03/07 07:34:50;;;;;;;21.60;9.67;;;;;4.60;94871.00;;;;8336881;28;20206;-76
2023/03/07 07:38:56;;;;;;;19.23;9.37;;;;;4.70;94866.00;;;;8335249;28;20483;-78
2023/03/07 07:42:59;;;;;;;17.50;8.63;;;;;4.80;94863.00;;;;8333072;28;20253;-76
2023/03/07 07:47:03;;;;;;;21.53;10.23;;;;;4.80;94862.00;;;;8338070;28;20228;-76
2023/03/07 07:51:10;;;;;;;19.47;8.53;;;;;4.80;94863.00;;;;8335984;28;20206;-78
2023/03/07 07:55:15;;;;;;;23.07;10.37;;;;;4.80;94872.00;;;;8335451;28;20211;-79
2023/03/07 07:59:27;;;;;;;23.20;8.47;;;;;4.80;94867.00;;;;8339111;28;20339;-75
2023/03/07 08:03:33;;;;;;;14.70;7.97;;;;;4.90;94867.00;;;;8330772;28;20624;-75
2023/03/07 08:07:39;;;;;;;18.23;6.90;;;;;4.90;94861.00;;;;8329295;28;20267;-77
2023/03/07 08:11:43;;;;;;;20.57;9.23;;;;;4.90;94854.00;;;;8334932;28;20204;-76
2023/03/07 08:15:48;;;;;;;17.47;8.70;;;;;4.90;94853.00;;;;8343088;28;20638;-76
2023/03/07 08:19:51;;;;;;;19.67;9.57;;;;;5.00;94853.00;;;;8341726;28;20901;-80
2023/03/07 08:23:55;;;;;;;18.97;9.07;;;;;5.20;94863.00;;;;8344307;28;20771;-75
2023/03/07 08:28:02;;;;;;;18.40;9.33;;;;;5.20;94851.00;;;;8341160;28;20227;-77
2023/03/07 08:32:07;;;;;;;20.83;9.67;;;;;5.30;94856.00;;;;8341479;28;20613;-76
2023/03/07 08:36:14;;;;;;;19.57;8.77;;;;;5.40;94858.00;;;;8322304;28;20205;-80
2023/03/07 08:40:17;;;;;;;18.63;8.80;;;;;5.50;94852.00;;;;8323299;28;20243;-74
2023/03/07 08:44:25;;;;;;;17.70;9.30;;;;;5.60;94844.00;;;;8340788;28;20487;-75
2023/03/07 08:48:32;;;;;;;15.70;7.37;;;;;5.70;94848.00;;;;8341789;28;20797;-75
2023/03/07 08:52:34;;;;;;;17.87;9.00;;;;;5.70;94852.00;;;;8344697;28;20972;-75
2023/03/07 08:56:37;;;;;;;19.93;9.47;;;;;5.70;94841.00;;;;8344102;28;20222;-78
2023/03/07 09:00:42;;;;;;;18.07;8.70;;;;;5.70;94844.00;;;;8333321;28;20264;-81
2023/03/07 09:04:45;;;;;;;16.43;7.70;;;;;5.80;94849.00;;;;8347795;28;20292;-76
2023/03/07 09:08:49;;;;;;;17.23;7.80;;;;;5.80;94838.00;;;;8354294;28;20223;-75
2023/03/07 09:12:52;;;;;;;16.07;8.43;;;;;5.90;94842.00;;;;8348438;28;20243;-76
2023/03/07 09:16:57;;;;;;;20.13;9.93;;;;;6.00;94826.00;;;;8348644;28;20553;-75
2023/03/07 09:21:00;;;;;;;19.50;8.17;;;;;6.10;94830.00;;;;8342000;28;20219;-75
2023/03/07 09:25:04;;;;;;;17.33;7.90;;;;;6.20;94828.00;;;;8350552;28;20248;-74
2023/03/07 09:29:10;;;;;;;18.17;8.90;;;;;6.30;94825.00;;;;8344854;28;20712;-75
2023/03/07 09:33:14;;;;;;;17.93;8.97;;;;;6.70;94824.00;;;;8352121;28;20209;-74
2023/03/07 09:37:17;;;;;;;17.50;9.17;;;;;7.00;94824.00;;;;8342003;28;20212;-76
2023/03/07 09:41:51;;;;;;;19.77;9.20;;;;;7.10;94818.00;;;;8328557;28;20204;-75
2023/03/07 09:46:04;;;;;;;15.07;8.53;;;;;7.20;94817.00;;;;8338259;28;20197;-76
2023/03/07 09:50:17;;;;;;;15.70;8.77;;;;;7.60;94806.00;;;;8347978;28;20289;-76
2023/03/07 09:54:24;;;;;;;15.87;8.40;;;;;7.80;94796.00;;;;8348885;28;20659;-77
2023/03/07 09:58:27;;;;;;;14.40;7.33;;;;;8.20;94788.00;;;;8348481;28;21014;-74
2023/03/07 10:02:35;;;;;;;12.23;7.20;;;;;8.30;94782.00;;;;8345801;28;20280;-81
2023/03/07 10:06:41;;;;;;;16.20;8.13;;;;;8.20;94778.00;;;;8324624;28;20209;-73
2023/03/07 10:10:52;;;;;;;14.97;7.27;;;;;8.60;94779.00;;;;8348208;28;20208;-80
2023/03/07 10:15:20;;;;;;;15.87;8.13;;;;;8.60;94772.00;;;;8342408;28;20829;-74
2023/03/07 10:19:31;;;;;;;13.63;7.70;;;;;8.60;94766.00;;;;8339131;28;20208;-78
2023/03/07 10:23:57;;;;;;;18.47;8.67;;;;;8.50;94766.00;;;;8345540;28;20217;-77
2023/03/07 10:28:09;;;;;;;13.83;6.43;;;;;8.60;94766.00;;;;8345876;28;20252;-75
2023/03/07 10:32:31;;;;;;;16.27;8.20;;;;;8.70;94763.00;;;;8335498;28;20201;-79
2023/03/07 10:36:41;;;;;;;11.50;7.32;;;;;8.70;94760.00;;;;8336550;28;20197;-74
2023/03/07 10:40:50;;;;;;;11.30;6.70;;;;;8.80;94751.00;;;;8333811;28;20899;-77
2023/03/07 10:44:55;;;;;;;14.48;7.97;;;;;8.80;94745.00;;;;8339619;28;20860;-80
2023/03/07 10:49:08;;;;;;;14.90;7.67;;;;;9.00;94742.00;;;;8333805;28;20312;-77
2023/03/07 10:53:25;;;;;;;15.30;8.45;;;;;9.20;94752.00;;;;8333566;28;20569;-77
2023/03/07 10:57:31;;;;;;;11.90;7.15;;;;;9.10;94731.00;;;;8334155;28;21323;-73
2023/03/07 11:01:36;;;;;;;10.10;5.93;;;;;9.20;94728.00;;;;8340237;28;20267;-75
2023/03/07 11:05:47;;;;;;;12.37;6.20;;;;;9.00;94726.00;;;;8342794;28;20919;-75
2023/03/07 11:09:51;;;;;;;12.30;6.40;;;;;9.20;94717.00;;;;8325678;28;20231;-74
2023/03/07 11:14:10;;;;;;;13.07;6.07;;;;;9.40;94711.00;;;;8339583;28;20212;-75
2023/03/07 11:18:29;;;;;;;14.23;7.23;;;;;9.60;94704.00;;;;8341342;28;20239;-75
2023/03/07 11:22:35;;;;;;;11.57;7.25;;;;;9.60;94690.00;;;;8344754;28;20201;-78
2023/03/07 11:26:40;;;;;;;13.90;7.47;;;;;9.40;94683.00;;;;8344363;28;20211;-78
2023/03/07 11:30:49;;;;;;;13.88;7.13;;;;;9.30;94675.00;;;;8333200;28;20946;-77
2023/03/07 11:34:59;;;;;;;13.07;6.90;;;;;9.20;94671.00;;;;8334818;28;20244;-78
2023/03/07 11:39:13;;;;;;;11.30;6.63;;;;;9.10;94655.00;;;;8341882;28;20235;-77
2023/03/07 11:43:21;;;;;;;10.60;6.43;;;;;9.20;94657.00;;;;8351424;28;20651;-77
2023/03/07 11:47:48;;;;;;;10.67;6.70;;;;;9.10;94648.00;;;;8339596;28;20659;-77
2023/03/07 11:52:08;;;;;;;7.80;5.03;;;;;8.80;94651.00;;;;8341061;28;20220;-80
2023/03/07 11:56:31;;;;;;;9.93;6.10;;;;;8.50;94647.00;;;;8348586;28;20251;-77
2023/03/07 12:00:41;;;;;;;11.93;6.73;;;;;8.40;94633.00;;;;8350392;28;20267;-77
2023/03/07 12:05:10;;;;;;;13.27;6.70;;;;;8.40;94632.00;;;;8357943;28;20231;-79
2023/03/07 12:09:28;;;;;;;11.97;6.40;;;;;8.30;94618.00;;;;8343357;28;20235;-77
2023/03/07 12:13:53;;;;;;;14.00;6.50;;;;;8.20;94624.00;;;;8349848;28;20662;-77
2023/03/07 12:18:26;;;;;;;12.23;6.60;;;;;8.40;94615.00;;;;8356067;28;20246;-77
2023/03/07 12:22:51;;;;;;;9.87;6.00;;;;;8.70;94613.00;;;;8330137;28;20201;-78
2023/03/07 12:27:01;;;;;;;8.27;5.17;;;;;8.80;94602.00;;;;8353593;28;20708;-77
2023/03/07 12:31:09;;;;;;;13.87;6.30;;;;;8.80;94600.00;;;;8354254;28;20260;-77
2023/03/07 12:35:23;;;;;;;7.77;5.17;;;;;8.90;94597.00;;;;8354117;28;20254;-76
2023/03/07 12:39:31;;;;;;;9.33;5.20;;;;;9.00;94598.00;;;;8350858;28;20216;-76
2023/03/07 12:43:40;;;;;;;9.17;5.43;;;;;9.10;94589.00;;;;8338830;28;20228;-77
2023/03/07 12:47:55;;;;;;;10.67;6.10;;;;;9.30;94581.00;;;;8346851;28;20235;-78
2023/03/07 12:52:01;;;;;;;9.57;4.90;;;;;9.30;94577.00;;;;8349390;28;20200;-79
2023/03/07 12:56:14;;;;;;;8.97;5.70;;;;;9.10;94585.00;;;;8345718;28;20566;-79
2023/03/07 13:00:22;;;;;;;10.83;5.97;;;;;9.20;94579.00;;;;8350165;28;20280;-79
2023/03/07 13:04:30;;;;;;;10.77;5.80;;;;;9.20;94586.00;;;;8329221;28;20800;-77
2023/03/07 13:08:35;;;;;;;11.57;6.57;;;;;9.30;94576.00;;;;8355227;28;20242;-77
2023/03/07 13:12:39;;;;;;;10.90;5.10;;;;;9.40;94578.00;;;;8346166;28;20558;-81
2023/03/07 13:16:44;;;;;;;11.13;6.00;;;;;9.40;94575.00;;;;8348028;28;20561;-78
2023/03/07 13:21:07;;;;;;;10.87;5.93;;;;;9.30;94576.00;;;;8353233;28;20196;-77
2023/03/07 13:25:46;;;;;;;10.30;5.97;;;;;9.10;94574.00;;;;8336060;28;20284;-77
2023/03/07 13:30:18;;;;;;;13.93;6.13;;;;;8.90;94583.00;;;;8338712;28;20230;-77
2023/03/07 13:34:48;;;;;;;11.70;5.93;;;;;8.90;94582.00;;;;8355223;28;20208;-77
2023/03/07 13:38:51;;;;;;;11.60;6.87;;;;;8.80;94583.00;;;;8350596;28;20201;-77
2023/03/07 13:42:57;;;;;;;13.20;6.23;;;;;8.70;94577.00;;;;8344659;28;20300;-78
2023/03/07 13:47:01;;;;;;;10.73;6.17;;;;;8.70;94568.00;;;;8332557;28;20193;-77
2023/03/07 13:51:08;;;;;;;10.73;5.60;;;;;8.60;94558.00;;;;8342370;28;20239;-77
2023/03/07 13:55:27;;;;;;;13.30;6.60;;;;;8.40;94567.00;;;;8338322;28;20196;-79
2023/03/07 13:59:33;;;;;;;10.70;6.40;;;;;8.30;94566.00;;;;8345661;28;20201;-77
2023/03/07 14:03:41;;;;;;;18.27;6.67;;;;;8.20;94560.00;;;;8321014;28;20259;-78
2023/03/07 14:07:50;;;;;;;11.67;6.67;;;;;8.10;94566.00;;;;8340090;28;20284;-77
2023/03/07 14:12:06;;;;;;;11.73;6.10;;;;;8.10;94558.00;;;;8319476;28;20693;-77
2023/03/07 14:16:46;;;;;;;13.03;6.90;;;;;8.30;94542.00;;;;8351655;28;20594;-78
2023/03/07 14:20:59;;;;;;;10.47;6.67;;;;;8.70;94548.00;;;;8329924;28;20197;-78
2023/03/07 14:25:17;;;;;;;11.40;6.27;;;;;8.60;94540.00;;;;8351112;28;20197;-77
2023/03/07 14:29:27;;;;;;;12.40;6.13;;;;;8.50;94543.00;;;;8343737;28;20225;-78
2023/03/07 14:33:34;;;;;;;11.30;6.43;;;;;8.60;94542.00;;;;8342652;28;20193;-78
2023/03/07 14:37:39;;;;;;;13.70;6.67;;;;;8.60;94546.00;;;;8341781;28;20585;-78
2023/03/07 14:41:55;;;;;;;10.33;5.53;;;;;8.60;94544.00;;;;8343584;28;20208;-77
2023/03/07 14:46:04;;;;;;;7.73;4.77;;;;;8.50;94534.00;;;;8349972;28;20204;-77
2023/03/07 14:50:14;;;;;;;9.37;6.03;;;;;8.50;94546.00;;;;8351892;28;20256;-76
2023/03/07 14:54:25;;;;;;;12.40;5.90;;;;;8.80;94542.00;;;;8337292;28;20255;-78
2023/03/07 14:58:31;;;;;;;9.03;4.60;;;;;8.80;94527.00;;;;8346865;28;20246;-80
2023/03/07 15:02:34;;;;;;;10.10;5.65;;;;;8.70;94554.00;;;;8347001;28;20217;-77
2023/03/07 15:06:44;;;;;;;13.00;6.00;;;;;8.40;94550.00;;;;8342214;28;20208;-79
2023/03/07 15:10:53;;;;;;;9.17;5.73;;;;;8.30;94554.00;;;;8350884;28;20258;-78
2023/03/07 15:14:59;;;;;;;12.30;6.57;;;;;8.10;94552.00;;;;8345183;28;20209;-78
2023/03/07 15:19:13;;;;;;;12.23;5.70;;;;;8.10;94574.00;;;;8349777;28;20197;-77
2023/03/07 15:23:26;;;;;;;11.37;6.07;;;;;8.00;94558.00;;;;8349654;28;20591;-77
2023/03/07 15:27:32;;;;;;;10.93;6.07;;;;;8.10;94564.00;;;;8349540;28;20197;-78
2023/03/07 15:31:49;;;;;;;8.90;5.97;;;;;8.10;94570.00;;;;8339513;28;20570;-77
2023/03/07 15:36:16;;;;;;;11.53;5.57;;;;;8.00;94559.00;;;;8345286;28;20193;-77
2023/03/07 15:40:26;;;;;;;11.53;5.60;;;;;7.90;94576.00;;;;8339332;28;20197;-71
2023/03/07 15:44:31;;;;;;;10.30;5.87;;;;;7.80;94571.00;;;;8338678;28;20202;-74
2023/03/07 15:48:40;;;;;;;12.57;6.47;;;;;7.70;94567.00;;;;8337078;28;20201;-75
2023/03/07 15:52:55;;;;;;;16.97;6.53;;;;;7.50;94570.00;;;;8344839;28;20279;-74
2023/03/07 15:57:04;;;;;;;12.60;6.50;;;;;7.50;94569.00;;;;8338537;28;20840;-73
2023/03/07 16:01:19;;;;;;;9.90;6.03;;;;;7.40;94568.00;;;;8341041;28;20219;-74
2023/03/07 16:05:39;;;;;;;14.03;6.70;;;;;7.30;94561.00;;;;8338558;28;20292;-74
2023/03/07 16:09:43;;;;;;;12.73;6.20;;;;;7.20;94568.00;;;;8337750;28;20224;-75
2023/03/07 16:13:45;;;;;;;10.23;5.97;;;;;7.10;94567.00;;;;8335030;28;20197;-75
2023/03/07 16:17:53;;;;;;;11.47;5.03;;;;;6.90;94560.00;;;;8323094;28;20217;-75
2023/03/07 16:21:56;;;;;;;8.73;5.00;;;;;6.80;94575.00;;;;8324549;28;20528;-74
2023/03/07 16:26:03;;;;;;;7.77;4.70;;;;;6.70;94572.00;;;;8340817;28;20191;-74
2023/03/07 16:30:13;;;;;;;7.93;4.40;;;;;6.60;94573.00;;;;8342364;28;20227;-74
2023/03/07 16:34:21;;;;;;;6.67;4.30;;;;;6.40;94578.00;;;;8342464;28;20215;-73
2023/03/07 16:38:28;;;;;;;6.20;4.20;;;;;6.30;94579.00;;;;8343600;28;20189;-74
2023/03/07 16:42:44;;;;;;;8.27;4.43;;;;;6.20;94585.00;;;;8344245;28;20204;-74
2023/03/07 16:46:55;;;;;;;8.97;4.43;;;;;6.00;94586.00;;;;8342570;28;20220;-75
2023/03/07 16:51:03;;;;;;;7.17;4.03;;;;;5.90;94590.00;;;;8342960;28;20309;-73
2023/03/07 16:55:13;;;;;;;10.47;5.13;;;;;5.80;94597.00;;;;8332229;28;20197;-73
2023/03/07 16:59:17;;;;;;;8.30;4.43;;;;;5.70;94588.00;;;;8338867;28;20201;-74
2023/03/07 17:03:23;;;;;;;6.60;4.13;;;;;5.60;94598.00;;;;8341725;28;20263;-74
2023/03/07 17:07:27;;;;;;;10.70;4.40;;;;;5.50;94604.00;;;;8343909;28;20738;-74
2023/03/07 17:11:31;;;;;;;11.30;5.00;;;;;5.40;94615.00;;;;8344170;28;20252;-73
2023/03/07 17:15:35;;;;;;;9.43;4.43;;;;;5.30;94610.00;;;;8343458;28;20286;-74
2023/03/07 17:19:45;;;;;;;7.70;4.87;;;;;5.20;94619.00;;;;8341061;28;20210;-74
2023/03/07 17:23:51;;;;;;;8.47;5.13;;;;;5.10;94626.00;;;;8341379;28;20590;-74
2023/03/07 17:27:59;;;;;;;11.20;5.30;;;;;5.00;94618.00;;;;8343337;28;20198;-74
2023/03/07 17:32:06;;;;;;;9.67;5.00;;;;;4.90;94626.00;;;;8334189;28;20276;-74
2023/03/07 17:36:09;;;;;;;9.43;4.80;;;;;4.80;94621.00;;;;8340437;28;20216;-73
2023/03/07 17:40:15;;;;;;;11.23;4.77;;;;;4.70;94629.00;;;;8343396;28;20803;-74
2023/03/07 17:44:18;;;;;;;10.20;4.93;;;;;4.70;94629.00;;;;8346517;28;20291;-74
2023/03/07 17:48:21;;;;;;;8.97;4.77;;;;;4.70;94636.00;;;;8328358;28;20206;-75
2023/03/07 17:52:26;;;;;;;9.93;4.57;;;;;4.60;94639.00;;;;8338368;28;20590;-75
2023/03/07 17:56:30;;;;;;;7.40;4.17;;;;;4.60;94636.00;;;;8340750;28;20202;-74
2023/03/07 18:00:33;;;;;;;9.97;5.40;;;;;4.60;94633.00;;;;8347490;28;20196;-75
2023/03/07 18:04:36;;;;;;;8.87;4.80;;;;;4.50;94648.00;;;;8341354;28;20232;-75
2023/03/07 18:08:39;;;;;;;8.30;4.97;;;;;4.40;94647.00;;;;8341238;28;20205;-75
2023/03/07 18:12:44;;;;;;;9.10;5.73;;;;;4.40;94647.00;;;;8341807;28;20258;-74
2023/03/07 18:16:49;;;;;;;10.43;5.97;;;;;4.40;94641.00;;;;8348242;28;20235;-75
2023/03/07 18:20:57;;;;;;;9.90;5.33;;;;;4.40;94635.00;;;;8343828;28;20198;-75
2023/03/07 18:25:00;;;;;;;11.13;5.37;;;;;4.40;94637.00;;;;8345512;28;20197;-74
2023/03/07 18:29:04;;;;;;;10.97;4.93;;;;;4.40;94632.00;;;;8339116;28;20200;-75
2023/03/07 18:33:13;;;;;;;10.40;5.17;;;;;4.40;94643.00;;;;8345171;28;20227;-75
2023/03/07 18:37:16;;;;;;;9.40;5.00;;;;;4.40;94636.00;;;;8341057;28;20218;-74
2023/03/07 18:41:21;;;;;;;10.13;4.83;;;;;4.40;94650.00;;;;8339346;28;20201;-74
2023/03/07 18:45:30;;;;;;;12.27;5.20;;;;;4.40;94651.00;;;;8325503;28;20208;-74
2023/03/07 18:49:33;;;;;;;12.77;5.67;;;;;4.40;94649.00;;;;8341642;28;20208;-73
2023/03/07 18:53:37;;;;;;;7.23;5.07;;;;;4.40;94658.00;;;;8339864;28;20234;-74
2023/03/07 18:57:41;;;;;;;12.57;5.67;;;;;4.40;94661.00;;;;8333403;28;20251;-74
2023/03/07 19:01:48;;;;;;;12.90;5.13;;;;;4.40;94665.00;;;;8330638;28;20282;-74
2023/03/07 19:05:51;;;;;;;9.20;5.10;;;;;4.20;94667.00;;;;8334063;28;20201;-74
2023/03/07 19:09:55;;;;;;;11.73;5.27;;;;;4.10;94671.00;;;;8340835;28;20200;-74
2023/03/07 19:14:03;;;;;;;7.73;4.83;;;;;4.20;94689.00;;;;8335603;28;20779;-74
2023/03/07 19:18:08;;;;;;;8.40;4.80;;;;;4.20;94684.00;;;;8343382;28;20728;-74
2023/03/07 19:22:20;;;;;;;13.50;5.63;;;;;4.20;94681.00;;;;8323389;28;20203;-74
2023/03/07 19:26:26;;;;;;;9.80;5.30;;;;;4.10;94685.00;;;;8341115;28;20285;-74
2023/03/07 19:30:31;;;;;;;8.77;4.97;;;;;4.00;94695.00;;;;8341291;28;20267;-74
2023/03/07 19:34:40;;;;;;;9.53;4.83;;;;;3.80;94698.00;;;;8339475;28;20281;-74
2023/03/07 19:38:53;;;;;;;11.53;5.53;;;;;3.80;94693.00;;;;8320705;28;20202;-74
2023/03/07 19:43:01;;;;;;;12.30;6.27;;;;;3.80;94695.00;;;;8339795;28;20212;-75
2023/03/07 19:47:14;;;;;;;15.50;9.60;;;;;3.80;94690.00;;;;8333000;28;20210;-74
2023/03/07 19:55:32;;;;;;;55.23;39.17;;;;;3.80;94699.00;;;;8338212;28;20281;-75
2023/03/07 19:59:36;;;;;;;46.00;31.77;;;;;3.80;94685.00;;;;8338817;28;20238;-77
2023/03/07 20:08:13;;;;;;;28.30;14.17;;;;;3.80;94711.00;;;;8335829;28;20202;-76
2023/03/07 20:12:20;;;;;;;11.63;7.27;;;;;3.80;94710.00;;;;8341443;28;20298;-75
2023/03/07 20:16:27;;;;;;;33.70;19.20;;;;;3.80;94704.00;;;;8339442;28;20244;-75
2023/03/07 20:20:35;;;;;;;25.83;16.97;;;;;3.80;94700.00;;;;8340109;28;20203;-76
2023/03/07 20:24:57;;;;;;;40.13;33.70;;;;;3.90;94699.00;;;;8320044;28;20213;-77
2023/03/07 20:29:08;;;;;;;343.83;230.10;;;;;4.00;94699.00;;;;8344427;28;20736;-75
2023/03/07 20:33:13;;;;;;;666.87;429.73;;;;;4.10;94710.00;;;;8340208;28;20329;-74
2023/03/07 20:37:19;;;;;;;33.20;29.37;;;;;4.20;94705.00;;;;8326512;28;20310;-76
2023/03/07 20:41:31;;;;;;;24.27;17.93;;;;;4.40;94699.00;;;;8332833;28;20212;-75
2023/03/07 20:45:38;;;;;;;12.80;7.30;;;;;4.50;94716.00;;;;8336273;28;20227;-75
2023/03/07 20:55:05;;;;;;;;;;;;;;;;;;;;;
2023/03/07 20:59:05;;;;;;;14.87;12.43;;;;;4.60;94693.00;;;;8342613;28;20233;-76